sensor_id;sensor_type;location;lat;lon;timestamp;P1;durP1;ratioP1;P2;durP2;ratioP2
74753;SDS011;63271;53.340;-6.260;2023-02-13T07:01:43;15.70;;;5.43;;
74753;SDS011;63271;53.340;-6.260;2023-02-13T07:04:09;19.27;;;6.32;;
74753;SDS011;63271;53.340;-6.260;2023-02-13T07:06:39;18.08;;;6.35;;
74753;SDS011;63271;53.340;-6.260;2023-02-13T07:09:04;17.05;;;5.10;;
74753;SDS011;63271;53.340;-6.260;2023-02-13T07:11:30;13.75;;;5.47;;
74753;SDS011;63271;53.340;-6.260;2023-02-13T07:13:58;13.07;;;4.25;;
74753;SDS011;63271;53.340;-6.260;2023-02-13T07:16:23;20.23;;;5.85;;
74753;SDS011;63271;53.340;-6.260;2023-02-13T07:18:49;14.73;;;5.95;;
74753;SDS011;63271;53.340;-6.260;2023-02-13T07:21:14;16.75;;;6.00;;
74753;SDS011;63271;53.340;-6.260;2023-02-13T07:23:39;15.10;;;6.40;;
74753;SDS011;63271;53.340;-6.260;2023-02-13T07:26:05;19.67;;;6.07;;
74753;SDS011;63271;53.340;-6.260;2023-02-13T07:28:33;21.70;;;5.55;;
74753;SDS011;63271;53.340;-6.260;2023-02-13T07:31:02;19.85;;;6.88;;
74753;SDS011;63271;53.340;-6.260;2023-02-13T07:33:33;19.77;;;6.55;;
74753;SDS011;63271;53.340;-6.260;2023-02-13T07:36:00;13.40;;;6.22;;
74753;SDS011;63271;53.340;-6.260;2023-02-13T07:38:32;20.20;;;6.82;;
74753;SDS011;63271;53.340;-6.260;2023-02-13T07:40:58;23.70;;;6.88;;
74753;SDS011;63271;53.340;-6.260;2023-02-13T07:43:24;18.55;;;6.25;;
74753;SDS011;63271;53.340;-6.260;2023-02-13T07:45:52;15.98;;;6.43;;
74753;SDS011;63271;53.340;-6.260;2023-02-13T07:48:23;20.67;;;7.90;;
74753;SDS011;63271;53.340;-6.260;2023-02-13T07:53:16;24.15;;;7.97;;
74753;SDS011;63271;53.340;-6.260;2023-02-13T07:55:42;21.83;;;7.05;;
74753;SDS011;63271;53.340;-6.260;2023-02-13T07:58:07;18.15;;;6.80;;
74753;SDS011;63271;53.340;-6.260;2023-02-13T08:00:35;33.33;;;11.23;;
74753;SDS011;63271;53.340;-6.260;2023-02-13T08:03:01;19.05;;;7.30;;
74753;SDS011;63271;53.340;-6.260;2023-02-13T08:05:31;20.23;;;7.78;;
74753;SDS011;63271;53.340;-6.260;2023-02-13T08:07:57;28.17;;;6.65;;
74753;SDS011;63271;53.340;-6.260;2023-02-13T08:10:23;18.58;;;7.25;;
74753;SDS011;63271;53.340;-6.260;2023-02-13T08:13:07;24.75;;;7.68;;
74753;SDS011;63271;53.340;-6.260;2023-02-13T08:15:33;28.30;;;8.63;;
74753;SDS011;63271;53.340;-6.260;2023-02-13T08:17:58;20.33;;;7.90;;
74753;SDS011;63271;53.340;-6.260;2023-02-13T08:20:24;19.85;;;7.78;;
74753;SDS011;63271;53.340;-6.260;2023-02-13T08:22:49;26.02;;;8.50;;
74753;SDS011;63271;53.340;-6.260;2023-02-13T08:25:15;18.92;;;8.35;;
74753;SDS011;63271;53.340;-6.260;2023-02-13T08:27:43;29.77;;;9.55;;
74753;SDS011;63271;53.340;-6.260;2023-02-13T08:30:10;16.90;;;6.10;;
74753;SDS011;63271;53.340;-6.260;2023-02-13T08:32:39;20.42;;;7.60;;
74753;SDS011;63271;53.340;-6.260;2023-02-13T08:35:04;18.85;;;7.93;;
74753;SDS011;63271;53.340;-6.260;2023-02-13T08:37:32;23.80;;;7.38;;
74753;SDS011;63271;53.340;-6.260;2023-02-13T08:39:58;23.70;;;8.55;;
74753;SDS011;63271;53.340;-6.260;2023-02-13T08:42:23;21.73;;;8.00;;
74753;SDS011;63271;53.340;-6.260;2023-02-13T08:44:53;25.25;;;9.27;;
74753;SDS011;63271;53.340;-6.260;2023-02-13T08:47:19;18.90;;;7.43;;
74753;SDS011;63271;53.340;-6.260;2023-02-13T08:49:47;29.30;;;9.93;;
74753;SDS011;63271;53.340;-6.260;2023-02-13T08:52:12;22.50;;;7.65;;
74753;SDS011;63271;53.340;-6.260;2023-02-13T08:54:40;21.13;;;7.47;;
74753;SDS011;63271;53.340;-6.260;2023-02-13T08:57:05;21.25;;;7.85;;
74753;SDS011;63271;53.340;-6.260;2023-02-13T08:59:33;17.70;;;7.85;;
74753;SDS011;63271;53.340;-6.260;2023-02-13T09:01:58;27.27;;;8.05;;
74753;SDS011;63271;53.340;-6.260;2023-02-13T09:04:24;21.73;;;7.65;;
74753;SDS011;63271;53.340;-6.260;2023-02-13T09:06:52;23.58;;;8.25;;
74753;SDS011;63271;53.340;-6.260;2023-02-13T09:09:20;24.25;;;8.15;;
74753;SDS011;63271;53.340;-6.260;2023-02-13T09:11:48;23.40;;;8.25;;
74753;SDS011;63271;53.340;-6.260;2023-02-13T09:14:16;17.92;;;8.30;;
74753;SDS011;63271;53.340;-6.260;2023-02-13T09:16:41;22.95;;;8.93;;
74753;SDS011;63271;53.340;-6.260;2023-02-13T09:19:09;23.40;;;7.80;;
74753;SDS011;63271;53.340;-6.260;2023-02-13T09:21:37;16.02;;;8.68;;
74753;SDS011;63271;53.340;-6.260;2023-02-13T09:24:05;37.17;;;8.25;;
74753;SDS011;63271;53.340;-6.260;2023-02-13T09:26:31;22.25;;;8.55;;
74753;SDS011;63271;53.340;-6.260;2023-02-13T09:28:59;26.23;;;9.30;;
74753;SDS011;63271;53.340;-6.260;2023-02-13T09:31:27;23.45;;;8.70;;
74753;SDS011;63271;53.340;-6.260;2023-02-13T09:33:55;21.75;;;8.13;;
74753;SDS011;63271;53.340;-6.260;2023-02-13T09:36:21;20.38;;;8.65;;
74753;SDS011;63271;53.340;-6.260;2023-02-13T09:38:53;27.05;;;9.10;;
74753;SDS011;63271;53.340;-6.260;2023-02-13T09:41:26;29.73;;;9.25;;
74753;SDS011;63271;53.340;-6.260;2023-02-13T09:43:59;20.23;;;8.82;;
74753;SDS011;63271;53.340;-6.260;2023-02-13T09:46:29;19.63;;;7.93;;
74753;SDS011;63271;53.340;-6.260;2023-02-13T09:49:00;27.88;;;9.48;;
74753;SDS011;63271;53.340;-6.260;2023-02-13T09:51:34;23.75;;;8.57;;
74753;SDS011;63271;53.340;-6.260;2023-02-13T09:54:06;18.15;;;8.32;;
74753;SDS011;63271;53.340;-6.260;2023-02-13T09:56:49;23.92;;;8.57;;
74753;SDS011;63271;53.340;-6.260;2023-02-13T10:07:42;17.83;;;7.35;;
74753;SDS011;63271;53.340;-6.260;2023-02-13T10:18:04;18.67;;;7.27;;
74753;SDS011;63271;53.340;-6.260;2023-02-13T10:20:33;23.27;;;7.75;;
74753;SDS011;63271;53.340;-6.260;2023-02-13T10:23:07;18.48;;;7.88;;
74753;SDS011;63271;53.340;-6.260;2023-02-13T10:25:48;18.75;;;8.77;;
74753;SDS011;63271;53.340;-6.260;2023-02-13T10:28:38;23.60;;;8.07;;
74753;SDS011;63271;53.340;-6.260;2023-02-13T10:31:09;20.65;;;9.07;;
74753;SDS011;63271;53.340;-6.260;2023-02-13T10:33:42;17.58;;;8.10;;
74753;SDS011;63271;53.340;-6.260;2023-02-13T10:38:45;22.67;;;7.85;;
74753;SDS011;63271;53.340;-6.260;2023-02-13T10:52:26;23.45;;;10.32;;
74753;SDS011;63271;53.340;-6.260;2023-02-13T11:02:37;23.27;;;8.82;;
74753;SDS011;63271;53.340;-6.260;2023-02-13T11:07:45;17.85;;;9.13;;
74753;SDS011;63271;53.340;-6.260;2023-02-13T11:12:42;25.45;;;10.00;;
74753;SDS011;63271;53.340;-6.260;2023-02-13T11:15:19;25.70;;;10.98;;
74753;SDS011;63271;53.340;-6.260;2023-02-13T11:17:47;18.13;;;8.90;;
74753;SDS011;63271;53.340;-6.260;2023-02-13T11:23:12;28.77;;;10.68;;
74753;SDS011;63271;53.340;-6.260;2023-02-13T11:26:00;17.15;;;8.95;;
74753;SDS011;63271;53.340;-6.260;2023-02-13T11:28:37;24.90;;;9.93;;
74753;SDS011;63271;53.340;-6.260;2023-02-13T11:31:13;16.90;;;8.85;;
74753;SDS011;63271;53.340;-6.260;2023-02-13T11:33:50;47.65;;;12.18;;
74753;SDS011;63271;53.340;-6.260;2023-02-13T11:36:22;19.60;;;9.55;;
74753;SDS011;63271;53.340;-6.260;2023-02-13T11:38:59;22.48;;;8.50;;
74753;SDS011;63271;53.340;-6.260;2023-02-13T11:41:36;16.35;;;8.85;;
74753;SDS011;63271;53.340;-6.260;2023-02-13T11:44:04;21.33;;;9.30;;
74753;SDS011;63271;53.340;-6.260;2023-02-13T11:46:47;20.67;;;9.20;;
74753;SDS011;63271;53.340;-6.260;2023-02-13T11:49:18;18.40;;;8.98;;
74753;SDS011;63271;53.340;-6.260;2023-02-13T11:51:49;18.30;;;9.13;;
74753;SDS011;63271;53.340;-6.260;2023-02-13T11:57:14;17.95;;;8.75;;
74753;SDS011;63271;53.340;-6.260;2023-02-13T12:00:24;18.58;;;8.45;;
74753;SDS011;63271;53.340;-6.260;2023-02-13T12:03:02;24.60;;;8.70;;
74753;SDS011;63271;53.340;-6.260;2023-02-13T12:06:34;19.63;;;9.02;;
74753;SDS011;63271;53.340;-6.260;2023-02-13T12:08:40;19.50;;;9.05;;
74753;SDS011;63271;53.340;-6.260;2023-02-13T12:11:20;20.38;;;9.60;;
74753;SDS011;63271;53.340;-6.260;2023-02-13T12:13:50;18.75;;;8.98;;
74753;SDS011;63271;53.340;-6.260;2023-02-13T12:18:53;17.83;;;9.20;;
74753;SDS011;63271;53.340;-6.260;2023-02-13T12:26:39;22.95;;;10.05;;
74753;SDS011;63271;53.340;-6.260;2023-02-13T12:32:34;21.73;;;8.70;;
74753;SDS011;63271;53.340;-6.260;2023-02-13T12:34:49;27.23;;;9.40;;
74753;SDS011;63271;53.340;-6.260;2023-02-13T12:45:57;22.20;;;10.27;;
74753;SDS011;63271;53.340;-6.260;2023-02-13T12:54:26;26.13;;;10.60;;
74753;SDS011;63271;53.340;-6.260;2023-02-13T12:57:02;20.92;;;8.73;;
74753;SDS011;63271;53.340;-6.260;2023-02-13T13:04:58;21.67;;;9.25;;
74753;SDS011;63271;53.340;-6.260;2023-02-13T13:07:52;20.63;;;8.63;;
74753;SDS011;63271;53.340;-6.260;2023-02-13T13:13:57;18.48;;;9.88;;
74753;SDS011;63271;53.340;-6.260;2023-02-13T13:16:34;24.42;;;10.68;;
74753;SDS011;63271;53.340;-6.260;2023-02-13T13:19:23;23.95;;;9.50;;
74753;SDS011;63271;53.340;-6.260;2023-02-13T13:22:24;20.55;;;8.07;;
74753;SDS011;63271;53.340;-6.260;2023-02-13T13:27:43;20.13;;;8.02;;
74753;SDS011;63271;53.340;-6.260;2023-02-13T13:30:19;22.00;;;8.90;;
74753;SDS011;63271;53.340;-6.260;2023-02-13T13:32:50;22.30;;;9.10;;
74753;SDS011;63271;53.340;-6.260;2023-02-13T13:35:20;25.10;;;9.02;;
74753;SDS011;63271;53.340;-6.260;2023-02-13T13:37:54;21.60;;;8.98;;
74753;SDS011;63271;53.340;-6.260;2023-02-13T13:43:07;19.35;;;9.32;;
74753;SDS011;63271;53.340;-6.260;2023-02-13T13:51:05;17.63;;;8.48;;
74753;SDS011;63271;53.340;-6.260;2023-02-13T13:53:31;18.25;;;8.57;;
74753;SDS011;63271;53.340;-6.260;2023-02-13T13:56:00;20.85;;;9.75;;
74753;SDS011;63271;53.340;-6.260;2023-02-13T13:58:37;20.55;;;9.10;;
74753;SDS011;63271;53.340;-6.260;2023-02-13T14:11:52;19.55;;;9.05;;
74753;SDS011;63271;53.340;-6.260;2023-02-13T14:16:52;22.07;;;10.77;;
74753;SDS011;63271;53.340;-6.260;2023-02-13T14:19:33;22.08;;;9.68;;
74753;SDS011;63271;53.340;-6.260;2023-02-13T14:24:48;20.98;;;9.77;;
74753;SDS011;63271;53.340;-6.260;2023-02-13T14:30:26;23.70;;;10.27;;
74753;SDS011;63271;53.340;-6.260;2023-02-13T14:32:55;29.38;;;10.60;;
74753;SDS011;63271;53.340;-6.260;2023-02-13T14:37:50;24.75;;;9.18;;
74753;SDS011;63271;53.340;-6.260;2023-02-13T14:42:48;30.77;;;10.90;;
74753;SDS011;63271;53.340;-6.260;2023-02-13T14:45:19;21.30;;;10.02;;
74753;SDS011;63271;53.340;-6.260;2023-02-13T14:47:50;20.63;;;9.13;;
74753;SDS011;63271;53.340;-6.260;2023-02-13T14:50:23;21.27;;;10.20;;
74753;SDS011;63271;53.340;-6.260;2023-02-13T14:52:54;21.05;;;9.60;;
74753;SDS011;63271;53.340;-6.260;2023-02-13T14:55:35;20.45;;;8.95;;
74753;SDS011;63271;53.340;-6.260;2023-02-13T14:58:05;21.23;;;9.57;;
74753;SDS011;63271;53.340;-6.260;2023-02-13T15:00:37;22.63;;;10.43;;
74753;SDS011;63271;53.340;-6.260;2023-02-13T15:03:23;19.98;;;9.10;;
74753;SDS011;63271;53.340;-6.260;2023-02-13T15:05:56;26.90;;;9.40;;
74753;SDS011;63271;53.340;-6.260;2023-02-13T15:08:26;21.67;;;10.23;;
74753;SDS011;63271;53.340;-6.260;2023-02-13T15:11:00;19.27;;;9.57;;
74753;SDS011;63271;53.340;-6.260;2023-02-13T15:13:30;27.15;;;10.88;;
74753;SDS011;63271;53.340;-6.260;2023-02-13T15:16:00;23.67;;;10.73;;
74753;SDS011;63271;53.340;-6.260;2023-02-13T15:20:57;23.83;;;9.15;;
74753;SDS011;63271;53.340;-6.260;2023-02-13T15:23:25;23.55;;;10.07;;
74753;SDS011;63271;53.340;-6.260;2023-02-13T15:26:05;24.52;;;9.65;;
74753;SDS011;63271;53.340;-6.260;2023-02-13T15:28:36;21.05;;;9.90;;
74753;SDS011;63271;53.340;-6.260;2023-02-13T15:31:06;23.08;;;10.70;;
74753;SDS011;63271;53.340;-6.260;2023-02-13T15:33:46;22.58;;;10.32;;
74753;SDS011;63271;53.340;-6.260;2023-02-13T15:36:22;25.20;;;11.85;;
74753;SDS011;63271;53.340;-6.260;2023-02-13T15:38:58;20.27;;;10.73;;
74753;SDS011;63271;53.340;-6.260;2023-02-13T15:41:26;21.92;;;11.52;;
74753;SDS011;63271;53.340;-6.260;2023-02-13T15:43:56;25.27;;;10.50;;
74753;SDS011;63271;53.340;-6.260;2023-02-13T15:46:26;32.20;;;12.05;;
74753;SDS011;63271;53.340;-6.260;2023-02-13T15:49:05;25.98;;;11.82;;
74753;SDS011;63271;53.340;-6.260;2023-02-13T15:51:34;20.10;;;10.70;;
74753;SDS011;63271;53.340;-6.260;2023-02-13T15:56:30;21.85;;;10.57;;
74753;SDS011;63271;53.340;-6.260;2023-02-13T15:58:59;26.88;;;11.80;;
74753;SDS011;63271;53.340;-6.260;2023-02-13T16:01:27;25.15;;;11.75;;
74753;SDS011;63271;53.340;-6.260;2023-02-13T16:03:55;23.70;;;11.80;;
74753;SDS011;63271;53.340;-6.260;2023-02-13T16:06:24;23.40;;;12.20;;
74753;SDS011;63271;53.340;-6.260;2023-02-13T16:08:59;23.95;;;12.13;;
74753;SDS011;63271;53.340;-6.260;2023-02-13T16:11:33;34.15;;;12.98;;
74753;SDS011;63271;53.340;-6.260;2023-02-13T16:14:06;24.98;;;11.05;;
74753;SDS011;63271;53.340;-6.260;2023-02-13T16:16:58;27.10;;;13.43;;
74753;SDS011;63271;53.340;-6.260;2023-02-13T16:19:38;25.77;;;11.65;;
74753;SDS011;63271;53.340;-6.260;2023-02-13T16:22:17;24.60;;;12.80;;
74753;SDS011;63271;53.340;-6.260;2023-02-13T16:24:51;23.60;;;10.82;;
74753;SDS011;63271;53.340;-6.260;2023-02-13T16:27:23;33.20;;;11.63;;
74753;SDS011;63271;53.340;-6.260;2023-02-13T16:30:02;23.17;;;11.60;;
74753;SDS011;63271;53.340;-6.260;2023-02-13T16:32:34;34.88;;;12.57;;
74753;SDS011;63271;53.340;-6.260;2023-02-13T16:37:50;24.88;;;10.98;;
74753;SDS011;63271;53.340;-6.260;2023-02-13T16:43:31;31.20;;;11.88;;
74753;SDS011;63271;53.340;-6.260;2023-02-13T16:56:43;30.17;;;12.70;;
74753;SDS011;63271;53.340;-6.260;2023-02-13T17:01:45;26.35;;;12.57;;
74753;SDS011;63271;53.340;-6.260;2023-02-13T17:04:18;20.63;;;12.30;;
74753;SDS011;63271;53.340;-6.260;2023-02-13T17:06:45;23.67;;;11.80;;
74753;SDS011;63271;53.340;-6.260;2023-02-13T17:09:10;22.52;;;11.93;;
74753;SDS011;63271;53.340;-6.260;2023-02-13T17:11:36;19.80;;;9.93;;
74753;SDS011;63271;53.340;-6.260;2023-02-13T17:14:05;24.70;;;11.88;;
74753;SDS011;63271;53.340;-6.260;2023-02-13T17:16:30;35.78;;;12.65;;
74753;SDS011;63271;53.340;-6.260;2023-02-13T17:18:56;28.42;;;12.82;;
74753;SDS011;63271;53.340;-6.260;2023-02-13T17:21:22;33.85;;;13.52;;
74753;SDS011;63271;53.340;-6.260;2023-02-13T17:23:47;32.22;;;14.40;;
74753;SDS011;63271;53.340;-6.260;2023-02-13T17:26:15;23.88;;;12.90;;
74753;SDS011;63271;53.340;-6.260;2023-02-13T17:28:43;35.55;;;13.55;;
74753;SDS011;63271;53.340;-6.260;2023-02-13T17:31:08;28.02;;;13.23;;
74753;SDS011;63271;53.340;-6.260;2023-02-13T17:33:34;29.70;;;12.57;;
74753;SDS011;63271;53.340;-6.260;2023-02-13T17:36:04;29.80;;;13.80;;
74753;SDS011;63271;53.340;-6.260;2023-02-13T17:38:32;37.47;;;15.82;;
74753;SDS011;63271;53.340;-6.260;2023-02-13T17:40:57;40.60;;;17.00;;
74753;SDS011;63271;53.340;-6.260;2023-02-13T17:43:23;27.27;;;12.50;;
74753;SDS011;63271;53.340;-6.260;2023-02-13T17:45:50;31.98;;;14.13;;
74753;SDS011;63271;53.340;-6.260;2023-02-13T17:48:16;25.83;;;12.68;;
74753;SDS011;63271;53.340;-6.260;2023-02-13T17:50:42;28.27;;;13.52;;
74753;SDS011;63271;53.340;-6.260;2023-02-13T17:53:17;35.80;;;13.95;;
74753;SDS011;63271;53.340;-6.260;2023-02-13T17:55:53;34.13;;;13.48;;
74753;SDS011;63271;53.340;-6.260;2023-02-13T17:58:19;25.30;;;14.52;;
74753;SDS011;63271;53.340;-6.260;2023-02-13T18:00:44;29.42;;;13.05;;
74753;SDS011;63271;53.340;-6.260;2023-02-13T18:03:10;28.30;;;12.55;;
74753;SDS011;63271;53.340;-6.260;2023-02-13T18:05:42;31.23;;;14.32;;
74753;SDS011;63271;53.340;-6.260;2023-02-13T18:08:11;24.52;;;12.55;;
74753;SDS011;63271;53.340;-6.260;2023-02-13T18:10:39;34.78;;;14.27;;
74753;SDS011;63271;53.340;-6.260;2023-02-13T18:13:05;27.48;;;13.68;;
74753;SDS011;63271;53.340;-6.260;2023-02-13T18:15:34;27.83;;;14.00;;
74753;SDS011;63271;53.340;-6.260;2023-02-13T18:18:08;28.98;;;14.25;;
74753;SDS011;63271;53.340;-6.260;2023-02-13T18:20:36;38.60;;;16.33;;
74753;SDS011;63271;53.340;-6.260;2023-02-13T18:23:04;24.33;;;13.80;;
74753;SDS011;63271;53.340;-6.260;2023-02-13T18:25:33;27.77;;;13.40;;
74753;SDS011;63271;53.340;-6.260;2023-02-13T18:28:01;26.27;;;13.25;;
74753;SDS011;63271;53.340;-6.260;2023-02-13T18:30:29;36.60;;;13.35;;
74753;SDS011;63271;53.340;-6.260;2023-02-13T18:32:57;31.88;;;14.20;;
74753;SDS011;63271;53.340;-6.260;2023-02-13T18:35:23;29.08;;;15.18;;
74753;SDS011;63271;53.340;-6.260;2023-02-13T18:37:51;32.03;;;14.35;;
74753;SDS011;63271;53.340;-6.260;2023-02-13T18:40:17;31.98;;;14.23;;
74753;SDS011;63271;53.340;-6.260;2023-02-13T18:42:43;35.22;;;15.30;;
74753;SDS011;63271;53.340;-6.260;2023-02-13T18:45:11;29.83;;;14.63;;
74753;SDS011;63271;53.340;-6.260;2023-02-13T18:47:36;29.65;;;12.98;;
74753;SDS011;63271;53.340;-6.260;2023-02-13T18:50:04;31.13;;;14.18;;
74753;SDS011;63271;53.340;-6.260;2023-02-13T18:52:32;38.67;;;13.63;;
74753;SDS011;63271;53.340;-6.260;2023-02-13T18:55:00;24.63;;;11.90;;
74753;SDS011;63271;53.340;-6.260;2023-02-13T18:57:33;32.17;;;14.45;;
74753;SDS011;63271;53.340;-6.260;2023-02-13T18:59:59;33.75;;;13.57;;
74753;SDS011;63271;53.340;-6.260;2023-02-13T19:02:26;27.85;;;13.55;;
74753;SDS011;63271;53.340;-6.260;2023-02-13T19:04:56;27.08;;;12.63;;
74753;SDS011;63271;53.340;-6.260;2023-02-13T19:07:25;29.60;;;12.65;;
74753;SDS011;63271;53.340;-6.260;2023-02-13T19:09:50;27.50;;;13.15;;
74753;SDS011;63271;53.340;-6.260;2023-02-13T19:12:16;34.05;;;13.80;;
74753;SDS011;63271;53.340;-6.260;2023-02-13T19:14:44;34.22;;;13.60;;
74753;SDS011;63271;53.340;-6.260;2023-02-13T19:17:15;30.13;;;11.95;;
74753;SDS011;63271;53.340;-6.260;2023-02-13T19:19:43;28.17;;;12.50;;
74753;SDS011;63271;53.340;-6.260;2023-02-13T19:22:09;28.40;;;11.60;;
74753;SDS011;63271;53.340;-6.260;2023-02-13T19:24:36;26.75;;;11.77;;
74753;SDS011;63271;53.340;-6.260;2023-02-13T19:27:02;34.80;;;13.38;;
74753;SDS011;63271;53.340;-6.260;2023-02-13T19:29:27;29.90;;;13.13;;
74753;SDS011;63271;53.340;-6.260;2023-02-13T19:31:53;30.35;;;13.38;;
74753;SDS011;63271;53.340;-6.260;2023-02-13T19:34:20;26.95;;;12.32;;
74753;SDS011;63271;53.340;-6.260;2023-02-13T19:36:46;27.80;;;12.70;;
74753;SDS011;63271;53.340;-6.260;2023-02-13T19:39:12;29.55;;;12.77;;
74753;SDS011;63271;53.340;-6.260;2023-02-13T19:41:39;25.67;;;12.38;;
74753;SDS011;63271;53.340;-6.260;2023-02-13T19:44:05;36.28;;;11.35;;
74753;SDS011;63271;53.340;-6.260;2023-02-13T19:46:33;22.45;;;10.75;;
74753;SDS011;63271;53.340;-6.260;2023-02-13T19:48:58;26.58;;;11.60;;
74753;SDS011;63271;53.340;-6.260;2023-02-13T19:51:28;25.75;;;11.43;;
74753;SDS011;63271;53.340;-6.260;2023-02-13T19:54:02;40.05;;;12.27;;
74753;SDS011;63271;53.340;-6.260;2023-02-13T19:56:32;27.17;;;11.13;;
74753;SDS011;63271;53.340;-6.260;2023-02-13T19:59:01;32.55;;;11.88;;
